Time;durP1;ratioP1;P1;durP2;ratioP2;P2;SDS_P1;SDS_P2;PMS_P1;PMS_P2;Temp;Humidity;BMP_temperature;BMP_pressure;BME280_temperature;BME280_humidity;BME280_pressure;Samples;Min_cycle;Max_cycle;Signal;HPM_P1;HPM_P2
2021/01/28 00:00:08;;;;;;;4.32;3.53;;;12.40;99.90;;;;;;5080829;28;20025;-62
2021/01/28 00:02:34;;;;;;;3.55;3.03;;;12.40;99.90;;;;;;5074135;28;20103;-64
2021/01/28 00:05:00;;;;;;;3.47;3.15;;;12.50;99.90;;;;;;5083200;28;20119;-62
2021/01/28 00:07:26;;;;;;;6.70;2.90;;;12.40;99.90;;;;;;5089040;28;20050;-63
2021/01/28 00:09:52;;;;;;;2.72;2.25;;;12.40;99.90;;;;;;5082827;28;20024;-63
2021/01/28 00:12:17;;;;;;;2.05;1.80;;;12.40;99.90;;;;;;5088935;28;20472;-62
2021/01/28 00:14:43;;;;;;;2.45;1.98;;;12.40;99.90;;;;;;5082767;28;20063;-62
2021/01/28 00:17:08;;;;;;;3.50;1.88;;;12.30;99.90;;;;;;5088981;28;20047;-63
2021/01/28 00:19:34;;;;;;;2.65;2.08;;;12.40;99.90;;;;;;5082230;28;20493;-62
2021/01/28 00:22:00;;;;;;;2.97;2.03;;;12.50;99.90;;;;;;5088963;28;20491;-62
2021/01/28 00:24:25;;;;;;;2.60;1.80;;;12.40;99.90;;;;;;5082376;28;20060;-62
2021/01/28 00:26:51;;;;;;;3.60;1.80;;;12.50;99.90;;;;;;5089075;28;20058;-62
2021/01/28 00:29:17;;;;;;;4.72;1.92;;;12.30;99.90;;;;;;5082331;28;20404;-62
2021/01/28 00:31:43;;;;;;;3.00;1.67;;;12.50;99.90;;;;;;5088769;28;20023;-63
2021/01/28 00:34:09;;;;;;;1.95;1.75;;;12.40;99.90;;;;;;5080764;28;20025;-61
2021/01/28 00:36:34;;;;;;;1.75;1.65;;;12.40;99.90;;;;;;5087579;28;20091;-62
2021/01/28 00:39:00;;;;;;;3.17;1.63;;;12.30;99.90;;;;;;5083021;28;20035;-62
2021/01/28 00:41:26;;;;;;;1.67;1.55;;;12.30;99.90;;;;;;5089538;28;20012;-62
2021/01/28 00:43:51;;;;;;;2.28;1.60;;;12.30;99.90;;;;;;5087757;28;20040;-62
2021/01/28 00:46:17;;;;;;;2.25;1.70;;;12.30;99.90;;;;;;5086983;28;20055;-62
2021/01/28 00:48:42;;;;;;;1.75;1.30;;;12.30;99.90;;;;;;5088852;28;20039;-62
2021/01/28 00:51:09;;;;;;;1.80;1.50;;;12.50;99.90;;;;;;5085160;28;20020;-62
2021/01/28 00:53:34;;;;;;;4.13;1.55;;;12.40;99.90;;;;;;5089915;28;20031;-62
2021/01/28 00:56:00;;;;;;;4.32;1.35;;;12.30;99.90;;;;;;5083648;28;20028;-62
2021/01/28 00:58:26;;;;;;;2.33;1.60;;;12.30;99.90;;;;;;5086329;28;20049;-62
2021/01/28 01:00:54;;;;;;;2.40;1.33;;;12.30;99.90;;;;;;5094508;28;20537;-62
2021/01/28 01:03:22;;;;;;;5.38;1.63;;;12.50;99.90;;;;;;5087983;28;20037;-64
2021/01/28 01:05:49;;;;;;;3.53;1.85;;;12.40;99.90;;;;;;5076153;28;20048;-61
2021/01/28 01:08:18;;;;;;;3.58;1.55;;;12.50;99.90;;;;;;5086872;28;20103;-62
2021/01/28 01:10:56;;;;;;;1.98;1.88;;;12.50;99.90;;;;;;5090097;28;20020;-61
2021/01/28 01:13:25;;;;;;;2.28;1.88;;;12.30;99.90;;;;;;5087283;28;20503;-61
2021/01/28 01:15:52;;;;;;;1.92;1.10;;;12.40;99.90;;;;;;5090726;28;20035;-63
2021/01/28 01:18:22;;;;;;;5.25;1.48;;;12.40;99.90;;;;;;5087353;28;20089;-62
2021/01/28 01:20:48;;;;;;;4.40;1.90;;;12.40;99.90;;;;;;5090017;28;20024;-62
2021/01/28 01:23:14;;;;;;;1.75;1.60;;;12.30;99.90;;;;;;5088003;28;20093;-62
2021/01/28 01:25:39;;;;;;;1.98;1.17;;;12.30;99.90;;;;;;5080431;28;20095;-63
2021/01/28 01:28:06;;;;;;;3.03;1.27;;;12.40;99.90;;;;;;5088331;28;20028;-62
2021/01/28 01:30:34;;;;;;;4.00;1.17;;;12.20;99.90;;;;;;5087843;28;20055;-62
2021/01/28 01:33:00;;;;;;;3.55;1.45;;;12.30;99.90;;;;;;5088467;28;20024;-62
2021/01/28 01:35:26;;;;;;;2.63;1.42;;;12.30;99.90;;;;;;5085218;28;20024;-62
2021/01/28 01:37:54;;;;;;;3.83;1.33;;;12.20;99.90;;;;;;5090137;28;20103;-62
2021/01/28 01:40:25;;;;;;;2.40;1.33;;;12.30;99.90;;;;;;5087006;28;20028;-61
2021/01/28 01:42:52;;;;;;;5.90;1.50;;;12.30;99.90;;;;;;5089329;28;20033;-64
2021/01/28 01:45:36;;;;;;;3.35;1.10;;;12.30;99.90;;;;;;5083213;28;20122;-62
2021/01/28 01:48:30;;;;;;;4.03;1.48;;;12.20;99.90;;;;;;5089338;28;20512;-62
2021/01/28 01:50:58;;;;;;;2.78;1.63;;;12.30;99.90;;;;;;5079131;28;20336;-62
2021/01/28 01:53:34;;;;;;;4.20;1.10;;;12.20;99.90;;;;;;5085078;28;20024;-62
2021/01/28 01:56:04;;;;;;;5.03;1.55;;;12.30;99.90;;;;;;5088231;28;20104;-62
2021/01/28 01:58:43;;;;;;;3.17;1.35;;;12.30;99.90;;;;;;5071324;28;20041;-63
2021/01/28 02:01:09;;;;;;;1.52;1.38;;;12.20;99.90;;;;;;5083221;28;20016;-62
2021/01/28 02:03:38;;;;;;;2.15;1.10;;;12.30;99.90;;;;;;5084392;28;20055;-62
2021/01/28 02:06:29;;;;;;;4.22;1.60;;;12.30;99.90;;;;;;5090480;28;20070;-62
2021/01/28 02:08:56;;;;;;;2.67;1.30;;;12.30;99.90;;;;;;5083638;28;20525;-62
2021/01/28 02:11:23;;;;;;;2.53;1.40;;;12.10;99.90;;;;;;5083370;28;20024;-62
2021/01/28 02:13:51;;;;;;;3.67;1.50;;;12.20;99.90;;;;;;5084237;28;20028;-62
2021/01/28 02:16:19;;;;;;;3.33;1.48;;;12.10;99.90;;;;;;5090496;28;20078;-61
2021/01/28 02:18:46;;;;;;;5.03;2.17;;;12.10;99.90;;;;;;5084099;28;20059;-62
2021/01/28 02:21:33;;;;;;;5.40;1.50;;;12.20;99.90;;;;;;5090652;28;20016;-63
2021/01/28 02:24:13;;;;;;;4.38;1.70;;;12.10;99.90;;;;;;5084323;28;20032;-62
2021/01/28 02:26:43;;;;;;;2.92;1.70;;;12.10;99.90;;;;;;5087264;28;20016;-62
2021/01/28 02:29:09;;;;;;;4.57;1.42;;;12.20;99.90;;;;;;5081493;28;20033;-62
2021/01/28 02:31:37;;;;;;;3.22;1.38;;;12.20;99.90;;;;;;5077588;28;20012;-62
2021/01/28 02:34:07;;;;;;;5.70;1.33;;;12.20;99.90;;;;;;5084417;28;20031;-62
2021/01/28 02:36:36;;;;;;;2.83;1.23;;;12.10;99.90;;;;;;5090089;28;20530;-62
2021/01/28 02:39:05;;;;;;;2.65;1.40;;;12.20;99.90;;;;;;5084455;28;20036;-62
2021/01/28 02:41:30;;;;;;;5.70;1.70;;;12.00;99.90;;;;;;5086814;28;20406;-63
2021/01/28 02:43:58;;;;;;;1.60;1.45;;;12.10;99.90;;;;;;5080741;28;20036;-62
2021/01/28 02:46:24;;;;;;;3.00;1.95;;;12.20;99.90;;;;;;5084511;28;20056;-63
2021/01/28 02:48:50;;;;;;;3.97;1.40;;;12.00;99.90;;;;;;5086046;28;20112;-62
2021/01/28 02:51:16;;;;;;;6.35;2.10;;;12.10;99.90;;;;;;5083130;28;20032;-63
2021/01/28 02:53:46;;;;;;;5.53;1.90;;;12.00;99.90;;;;;;5087210;28;20072;-63
2021/01/28 02:56:12;;;;;;;6.68;2.05;;;12.00;99.90;;;;;;5088636;28;20028;-62
2021/01/28 02:58:38;;;;;;;3.08;1.38;;;12.20;99.90;;;;;;5086313;28;20035;-63
2021/01/28 03:01:05;;;;;;;12.02;2.22;;;12.00;99.90;;;;;;5086480;28;20023;-62
2021/01/28 03:03:31;;;;;;;3.08;1.40;;;12.00;99.90;;;;;;5084537;28;20491;-63
2021/01/28 03:05:57;;;;;;;5.95;1.90;;;12.00;99.90;;;;;;5085140;28;20019;-62
2021/01/28 03:08:24;;;;;;;5.25;2.08;;;11.90;99.90;;;;;;5085012;28;20038;-62
2021/01/28 03:10:51;;;;;;;2.30;1.90;;;12.10;99.90;;;;;;5083612;28;20036;-62
2021/01/28 03:13:17;;;;;;;4.25;1.83;;;12.00;99.90;;;;;;5085934;28;20508;-62
2021/01/28 03:15:42;;;;;;;5.97;1.95;;;12.10;99.90;;;;;;5087049;28;20027;-62
2021/01/28 03:18:08;;;;;;;5.43;1.63;;;11.90;99.90;;;;;;5086882;28;20024;-64
2021/01/28 03:20:34;;;;;;;2.33;1.55;;;12.00;99.90;;;;;;5085636;28;20624;-63
2021/01/28 03:23:00;;;;;;;3.90;1.60;;;12.00;99.90;;;;;;5087700;28;20107;-62
2021/01/28 03:25:27;;;;;;;1.58;1.48;;;11.90;99.90;;;;;;5085076;28;20032;-62
2021/01/28 03:27:54;;;;;;;3.42;1.55;;;12.10;99.90;;;;;;5087532;28;20028;-63
2021/01/28 03:30:24;;;;;;;2.08;1.33;;;11.90;99.90;;;;;;5084929;28;20051;-62
2021/01/28 03:32:50;;;;;;;5.15;2.10;;;12.10;99.90;;;;;;5087287;28;20039;-62
2021/01/28 03:35:18;;;;;;;5.30;1.92;;;12.10;99.90;;;;;;5084777;28;20361;-62
2021/01/28 03:37:44;;;;;;;5.65;1.90;;;12.00;99.90;;;;;;5087778;28;20028;-62
2021/01/28 03:40:10;;;;;;;5.78;1.88;;;12.00;99.90;;;;;;5084633;28;20379;-62
2021/01/28 03:42:36;;;;;;;1.60;1.50;;;12.00;99.90;;;;;;5088529;28;20527;-62
2021/01/28 03:45:03;;;;;;;3.13;1.83;;;11.90;99.90;;;;;;5080963;28;20088;-62
2021/01/28 03:47:29;;;;;;;2.72;1.73;;;12.10;99.90;;;;;;5089390;28;20051;-63
2021/01/28 03:49:55;;;;;;;5.05;1.73;;;12.00;99.90;;;;;;5079501;28;20051;-63
2021/01/28 03:52:20;;;;;;;4.68;2.25;;;12.00;99.90;;;;;;5089414;28;20020;-63
2021/01/28 03:54:46;;;;;;;3.00;2.17;;;12.10;99.90;;;;;;5083020;28;20025;-62
2021/01/28 03:57:12;;;;;;;5.78;2.13;;;12.00;99.90;;;;;;5071285;28;20384;-62
2021/01/28 03:59:37;;;;;;;7.18;2.58;;;12.00;99.90;;;;;;5087303;28;20104;-63
2021/01/28 04:02:03;;;;;;;7.40;2.30;;;11.90;99.90;;;;;;5086199;28;20028;-61
2021/01/28 04:04:28;;;;;;;5.20;2.13;;;12.00;99.90;;;;;;5085420;28;20036;-62
2021/01/28 04:06:54;;;;;;;4.10;1.85;;;12.00;99.90;;;;;;5089235;28;20107;-62
2021/01/28 04:09:20;;;;;;;6.70;1.90;;;12.00;99.90;;;;;;5083169;28;20613;-61
2021/01/28 04:11:46;;;;;;;6.30;2.20;;;11.90;99.90;;;;;;5084425;28;20165;-62
2021/01/28 04:14:11;;;;;;;3.47;2.25;;;11.90;99.90;;;;;;5082631;28;20024;-62
2021/01/28 04:16:37;;;;;;;6.30;2.45;;;11.90;99.90;;;;;;5090021;28;20028;-62
2021/01/28 04:19:02;;;;;;;6.93;2.28;;;11.80;99.90;;;;;;5086345;28;20036;-62
2021/01/28 04:21:28;;;;;;;4.72;2.38;;;12.00;99.90;;;;;;5092716;28;20024;-62
2021/01/28 04:23:54;;;;;;;6.45;2.47;;;11.80;99.90;;;;;;5086287;28;20032;-62
2021/01/28 04:26:19;;;;;;;7.45;3.80;;;11.80;99.90;;;;;;5092969;28;20031;-62
2021/01/28 04:28:45;;;;;;;5.43;2.85;;;11.90;99.90;;;;;;5086226;28;20078;-62
2021/01/28 04:31:11;;;;;;;9.93;2.95;;;11.80;99.90;;;;;;5092494;28;20035;-62
2021/01/28 04:33:37;;;;;;;5.20;3.22;;;11.80;99.90;;;;;;5086134;28;20029;-62
2021/01/28 04:36:03;;;;;;;5.43;3.30;;;11.70;99.90;;;;;;5092284;28;20120;-62
2021/01/28 04:38:29;;;;;;;8.95;3.58;;;11.80;99.90;;;;;;5087393;28;20032;-62
2021/01/28 04:41:19;;;;;;;6.68;2.90;;;11.90;99.90;;;;;;5091567;28;20081;-63
2021/01/28 04:43:48;;;;;;;4.78;2.45;;;11.90;99.90;;;;;;5078426;28;20053;-62
2021/01/28 04:46:36;;;;;;;3.33;1.80;;;11.90;99.90;;;;;;5092153;28;20040;-61
2021/01/28 04:49:05;;;;;;;5.60;1.90;;;11.90;99.90;;;;;;5085792;28;20043;-62
2021/01/28 04:51:33;;;;;;;3.17;1.90;;;12.00;99.90;;;;;;5089987;28;20017;-62
2021/01/28 04:54:02;;;;;;;8.90;1.88;;;11.90;99.90;;;;;;5086099;28;20027;-62
2021/01/28 04:56:29;;;;;;;4.13;1.88;;;12.00;99.90;;;;;;5092171;28;20028;-61
2021/01/28 04:59:06;;;;;;;4.78;1.95;;;12.00;99.90;;;;;;5088387;28;20035;-62
2021/01/28 05:01:32;;;;;;;4.18;1.80;;;11.90;99.90;;;;;;5091807;28;20016;-61
2021/01/28 05:04:02;;;;;;;3.42;2.10;;;11.90;99.90;;;;;;5086487;28;20044;-62
2021/01/28 05:06:28;;;;;;;9.02;2.30;;;11.90;99.90;;;;;;5085012;28;20065;-61
2021/01/28 05:08:53;;;;;;;4.00;2.40;;;12.00;99.90;;;;;;5085523;28;20028;-63
2021/01/28 05:11:24;;;;;;;7.28;2.65;;;11.90;99.90;;;;;;5083375;28;20028;-63
2021/01/28 05:13:50;;;;;;;4.78;3.05;;;12.00;99.90;;;;;;5085552;28;20032;-61
2021/01/28 05:16:35;;;;;;;7.65;2.38;;;11.90;99.90;;;;;;5081036;28;20021;-62
2021/01/28 05:19:05;;;;;;;5.63;2.55;;;12.00;99.90;;;;;;5085043;28;20039;-62
2021/01/28 05:21:41;;;;;;;7.72;2.85;;;12.00;99.90;;;;;;5091393;28;20694;-62
2021/01/28 05:24:46;;;;;;;3.40;2.85;;;11.90;99.90;;;;;;5085090;28;20036;-61
2021/01/28 05:27:18;;;;;;;5.53;2.20;;;11.90;99.90;;;;;;5057116;28;20036;-62
2021/01/28 05:29:45;;;;;;;6.30;1.85;;;12.00;99.90;;;;;;5084897;28;20124;-61
2021/01/28 05:32:46;;;;;;;4.72;2.00;;;11.80;99.90;;;;;;5091601;28;20047;-61
2021/01/28 05:35:32;;;;;;;5.13;2.10;;;12.00;99.90;;;;;;5081873;28;20027;-61
2021/01/28 05:38:18;;;;;;;3.63;2.10;;;11.90;99.90;;;;;;5088176;28;20610;-62
2021/01/28 05:40:59;;;;;;;7.18;2.30;;;11.90;99.90;;;;;;5078768;28;20111;-63
2021/01/28 05:43:45;;;;;;;6.70;1.98;;;11.90;99.90;;;;;;5085860;28;20036;-61
2021/01/28 05:46:13;;;;;;;4.32;2.03;;;11.90;99.90;;;;;;5082973;28;20296;-61
2021/01/28 05:48:39;;;;;;;5.85;2.10;;;11.90;99.90;;;;;;5084919;28;20075;-61
2021/01/28 05:51:20;;;;;;;4.75;2.17;;;11.80;99.90;;;;;;5090962;28;20059;-61
2021/01/28 05:54:02;;;;;;;4.20;2.30;;;11.90;99.90;;;;;;5088481;28;20080;-61
2021/01/28 05:56:31;;;;;;;4.93;1.42;;;11.80;99.90;;;;;;5089580;28;20162;-64
2021/01/28 05:59:08;;;;;;;6.13;2.05;;;11.80;99.90;;;;;;5089033;28;20051;-60
2021/01/28 06:02:07;;;;;;;5.43;2.03;;;11.80;99.90;;;;;;5090942;28;20460;-61
2021/01/28 06:05:06;;;;;;;5.40;2.20;;;11.80;99.90;;;;;;5086860;28;20036;-61
2021/01/28 06:07:55;;;;;;;2.95;2.30;;;11.90;99.90;;;;;;5085859;28;20413;-62
2021/01/28 06:10:37;;;;;;;5.60;2.50;;;11.80;99.90;;;;;;5088286;28;20459;-60
2021/01/28 06:13:37;;;;;;;7.70;1.50;;;11.80;99.90;;;;;;5088409;28;20025;-61
2021/01/28 06:16:34;;;;;;;2.25;1.60;;;12.40;99.90;;;;;;5087961;28;20027;-61
2021/01/28 06:19:26;;;;;;;4.43;1.70;;;12.00;99.90;;;;;;5087641;28;20024;-61
2021/01/28 06:21:56;;;;;;;4.82;2.20;;;11.80;99.90;;;;;;5089801;28;20484;-61
2021/01/28 06:24:31;;;;;;;8.23;2.53;;;11.90;99.90;;;;;;5087601;28;20032;-62
2021/01/28 06:27:16;;;;;;;6.68;2.38;;;11.90;99.90;;;;;;5089717;28;20492;-63
2021/01/28 06:30:14;;;;;;;5.18;2.35;;;11.80;99.90;;;;;;5087689;28;20050;-64
2021/01/28 06:33:07;;;;;;;4.75;1.95;;;11.80;99.90;;;;;;5043001;28;20111;-63
2021/01/28 06:35:44;;;;;;;4.70;2.65;;;11.80;99.90;;;;;;5087895;28;20016;-61
2021/01/28 06:38:27;;;;;;;7.60;4.85;;;11.80;99.90;;;;;;5087683;28;20509;-64
2021/01/28 06:40:56;;;;;;;9.13;5.35;;;11.80;99.90;;;;;;5088896;28;20032;-63
2021/01/28 06:43:54;;;;;;;13.18;5.63;;;11.80;99.90;;;;;;5088106;28;20059;-66
2021/01/28 06:46:47;;;;;;;7.90;4.55;;;11.80;99.90;;;;;;5087700;28;20073;-61
2021/01/28 06:49:44;;;;;;;8.57;3.80;;;11.80;99.90;;;;;;5087715;28;20032;-62
2021/01/28 06:52:33;;;;;;;4.07;3.00;;;11.80;99.90;;;;;;5088724;28;20024;-64
2021/01/28 06:55:04;;;;;;;3.90;2.90;;;11.80;99.90;;;;;;5087501;28;20368;-64
2021/01/28 06:57:41;;;;;;;3.88;2.90;;;11.80;99.90;;;;;;5088237;28;20080;-62
2021/01/28 07:00:16;;;;;;;4.95;3.30;;;11.80;99.90;;;;;;5088249;28;20016;-60
2021/01/28 07:03:03;;;;;;;6.53;3.95;;;11.70;99.90;;;;;;5088016;28;20502;-62
2021/01/28 07:05:28;;;;;;;;;;;11.70;99.90;;;;;;5070819;28;20032;-61
2021/01/28 07:08:04;;;;;;;4.73;4.30;;;11.70;99.90;;;;;;5087871;28;19904;-61
2021/01/28 07:10:41;;;;;;;4.97;4.18;;;11.70;99.90;;;;;;5084166;28;20047;-61
2021/01/28 07:13:17;;;;;;;5.40;3.63;;;11.70;99.90;;;;;;5086255;28;20024;-61
2021/01/28 07:16:26;;;;;;;9.18;3.70;;;11.70;99.90;;;;;;5083792;28;20115;-62
2021/01/28 07:18:58;;;;;;;4.18;2.75;;;11.70;99.90;;;;;;5077648;28;20407;-61
2021/01/28 07:21:47;;;;;;;4.43;2.72;;;11.70;99.90;;;;;;5084112;28;20114;-61
2021/01/28 07:24:32;;;;;;;7.63;3.10;;;11.70;99.90;;;;;;5078608;28;20043;-61
2021/01/28 07:27:02;;;;;;;5.40;3.42;;;11.60;99.90;;;;;;5077793;28;20051;-61
2021/01/28 07:29:30;;;;;;;7.07;3.50;;;11.70;99.90;;;;;;5086855;28;20024;-61
2021/01/28 07:32:00;;;;;;;7.30;4.03;;;11.70;99.90;;;;;;5089180;28;20051;-61
2021/01/28 07:34:26;;;;;;;7.30;3.35;;;11.60;99.90;;;;;;5078440;28;20071;-61
2021/01/28 07:37:16;;;;;;;4.28;3.85;;;11.70;99.90;;;;;;5084106;28;20494;-61
2021/01/28 07:39:42;;;;;;;6.95;4.38;;;11.70;99.90;;;;;;5080375;28;20024;-61
2021/01/28 07:42:30;;;;;;;6.43;4.15;;;11.70;99.90;;;;;;5089394;28;20579;-62
2021/01/28 07:44:58;;;;;;;5.50;4.30;;;11.80;99.90;;;;;;5081396;28;20036;-61
2021/01/28 07:47:30;;;;;;;6.65;3.20;;;11.70;99.90;;;;;;5079488;28;20024;-61
2021/01/28 07:50:31;;;;;;;8.35;3.30;;;11.70;99.90;;;;;;5079089;28;20536;-61
2021/01/28 07:53:18;;;;;;;4.47;2.92;;;11.70;99.90;;;;;;5090989;28;20028;-61
2021/01/28 07:55:44;;;;;;;;;;;11.80;99.90;;;;;;5090948;28;20092;-61
2021/01/28 07:58:20;;;;;;;13.32;6.60;;;11.90;99.90;;;;;;5091228;28;19909;-61
2021/01/28 08:00:48;;;;;;;12.05;8.48;;;11.80;99.90;;;;;;5075108;28;20401;-61
2021/01/28 08:03:32;;;;;;;17.42;10.93;;;11.80;99.90;;;;;;5090378;28;20024;-62
2021/01/28 08:06:04;;;;;;;13.55;10.25;;;11.80;99.90;;;;;;5082404;28;20032;-61
2021/01/28 08:08:29;;;;;;;13.05;10.35;;;11.80;99.90;;;;;;5089311;28;20056;-61
2021/01/28 08:11:12;;;;;;;11.57;8.57;;;11.80;99.90;;;;;;5081329;28;20056;-62
2021/01/28 08:13:38;;;;;;;10.95;7.00;;;11.90;99.90;;;;;;5088363;28;20502;-62
2021/01/28 08:16:07;;;;;;;10.50;6.28;;;11.80;99.90;;;;;;5080200;28;20024;-61
2021/01/28 08:18:36;;;;;;;8.65;5.18;;;11.90;99.90;;;;;;5087335;28;20036;-61
2021/01/28 08:21:11;;;;;;;6.00;4.22;;;11.80;99.90;;;;;;5087784;28;20016;-61
2021/01/28 08:23:42;;;;;;;4.53;3.70;;;11.90;99.90;;;;;;5086836;28;20024;-61
2021/01/28 08:26:10;;;;;;;9.85;3.80;;;11.80;99.90;;;;;;5086351;28;20028;-62
2021/01/28 08:28:40;;;;;;;3.83;3.40;;;11.90;99.90;;;;;;5086903;28;20060;-61
2021/01/28 08:31:22;;;;;;;6.13;3.15;;;11.90;99.90;;;;;;5086036;28;20449;-62
2021/01/28 08:33:55;;;;;;;3.58;2.63;;;11.90;99.90;;;;;;5089048;28;20177;-62
2021/01/28 08:36:32;;;;;;;5.40;2.90;;;11.90;99.90;;;;;;5081280;28;20016;-62
2021/01/28 08:39:18;;;;;;;5.90;3.10;;;12.00;99.90;;;;;;5085094;28;20029;-61
2021/01/28 08:41:46;;;;;;;11.35;3.50;;;12.00;99.90;;;;;;5074846;28;20396;-62
2021/01/28 08:44:17;;;;;;;8.93;4.00;;;12.00;99.90;;;;;;5089440;28;20032;-63
2021/01/28 08:46:44;;;;;;;7.97;3.78;;;12.00;99.90;;;;;;5082063;28;20083;-62
2021/01/28 08:49:15;;;;;;;6.93;3.63;;;11.90;99.90;;;;;;5084703;28;20023;-61
2021/01/28 08:51:44;;;;;;;6.25;3.05;;;12.00;99.90;;;;;;5091137;28;20024;-61
2021/01/28 08:54:37;;;;;;;7.40;3.45;;;12.00;99.90;;;;;;5084478;28;20024;-61
2021/01/28 08:57:04;;;;;;;4.75;3.13;;;12.10;99.90;;;;;;5080124;28;20111;-61
2021/01/28 08:59:44;;;;;;;8.15;4.20;;;12.10;99.90;;;;;;5085394;28;20028;-61
2021/01/28 09:02:13;;;;;;;6.20;4.40;;;12.20;99.90;;;;;;5076697;28;20027;-61
2021/01/28 09:04:43;;;;;;;9.93;4.43;;;12.20;99.90;;;;;;5084313;28;20024;-61
2021/01/28 09:07:10;;;;;;;5.28;2.83;;;12.20;99.90;;;;;;5090673;28;20020;-62
2021/01/28 09:09:36;;;;;;;6.65;3.10;;;12.30;99.90;;;;;;5083477;28;20032;-62
2021/01/28 09:12:27;;;;;;;5.88;3.28;;;12.30;99.90;;;;;;5055293;28;20105;-61
2021/01/28 09:15:16;;;;;;;7.13;2.70;;;12.40;99.90;;;;;;5090536;28;20015;-61
2021/01/28 09:17:43;;;;;;;5.47;2.42;;;12.40;99.90;;;;;;5087493;28;20026;-61
2021/01/28 09:20:27;;;;;;;4.57;2.40;;;12.40;99.90;;;;;;5083545;28;20024;-61
2021/01/28 09:23:22;;;;;;;4.95;2.78;;;12.50;99.90;;;;;;5085846;28;20490;-61
2021/01/28 09:26:09;;;;;;;4.53;3.30;;;12.50;99.90;;;;;;5089811;28;20040;-63
2021/01/28 09:28:35;;;;;;;8.23;3.15;;;12.50;99.90;;;;;;5087533;28;20023;-61
2021/01/28 09:31:19;;;;;;;6.47;3.92;;;12.50;99.90;;;;;;5079652;28;20115;-63
2021/01/28 09:33:45;;;;;;;11.73;3.30;;;12.50;99.90;;;;;;5086080;28;20086;-61
2021/01/28 09:36:13;;;;;;;7.72;3.22;;;12.60;99.90;;;;;;5087336;28;20020;-61
2021/01/28 09:38:40;;;;;;;11.93;3.15;;;12.60;99.90;;;;;;5086677;28;20036;-61
2021/01/28 09:41:26;;;;;;;7.40;3.42;;;12.70;99.90;;;;;;5086184;28;20073;-61
2021/01/28 09:43:52;;;;;;;6.47;3.80;;;12.70;99.90;;;;;;5084677;28;20123;-62
2021/01/28 09:46:17;;;;;;;4.85;3.78;;;12.80;99.90;;;;;;5063747;28;634701;-61
2021/01/28 09:48:43;;;;;;;5.35;2.97;;;12.90;99.90;;;;;;5086906;28;20030;-61
2021/01/28 09:51:10;;;;;;;7.00;2.70;;;12.90;99.90;;;;;;5089241;28;20123;-61
2021/01/28 09:53:37;;;;;;;4.32;2.47;;;13.00;99.90;;;;;;5087677;28;20032;-61
2021/01/28 09:56:03;;;;;;;4.38;2.50;;;13.10;99.90;;;;;;5088315;28;20035;-61
2021/01/28 09:58:29;;;;;;;5.13;2.90;;;13.20;99.90;;;;;;5088440;28;20028;-62
2021/01/28 10:00:55;;;;;;;7.40;2.30;;;13.40;99.90;;;;;;5086432;28;20107;-64
2021/01/28 10:03:21;;;;;;;6.40;2.90;;;13.50;99.90;;;;;;5089227;28;20024;-61
2021/01/28 10:05:47;;;;;;;4.53;2.97;;;13.60;99.90;;;;;;5085032;28;20032;-61
2021/01/28 10:08:16;;;;;;;4.53;3.15;;;13.70;99.90;;;;;;5088885;28;20028;-60
2021/01/28 10:10:42;;;;;;;3.38;2.65;;;13.70;99.90;;;;;;5086253;28;20020;-61
2021/01/28 10:13:12;;;;;;;6.22;2.00;;;13.90;99.90;;;;;;5089017;28;20030;-61
2021/01/28 10:15:38;;;;;;;4.15;1.42;;;14.20;99.90;;;;;;5083564;28;20059;-62
2021/01/28 10:18:04;;;;;;;5.78;1.85;;;14.10;99.90;;;;;;5089691;28;20044;-61
2021/01/28 10:20:30;;;;;;;4.25;1.50;;;14.10;99.90;;;;;;5078653;28;20032;-61
2021/01/28 10:23:02;;;;;;;4.40;1.90;;;14.10;99.90;;;;;;5084231;28;20466;-61
2021/01/28 10:25:27;;;;;;;4.57;1.80;;;14.20;99.90;;;;;;5079249;28;20039;-62
2021/01/28 10:27:53;;;;;;;6.53;1.70;;;14.10;99.90;;;;;;5092038;28;20024;-62
2021/01/28 10:30:20;;;;;;;2.95;1.65;;;14.20;99.90;;;;;;5085291;28;20598;-62
2021/01/28 10:32:47;;;;;;;3.08;1.42;;;14.10;99.90;;;;;;5090650;28;20042;-63
2021/01/28 10:35:20;;;;;;;5.90;1.65;;;14.20;99.90;;;;;;5082301;28;20034;-63
2021/01/28 10:37:46;;;;;;;5.22;2.00;;;14.30;99.90;;;;;;5090577;28;20028;-63
2021/01/28 10:40:12;;;;;;;8.98;1.60;;;14.30;99.90;;;;;;5078995;28;20047;-62
2021/01/28 10:42:40;;;;;;;6.85;1.77;;;14.60;99.90;;;;;;5078917;28;20516;-63
2021/01/28 10:45:19;;;;;;;6.13;1.40;;;14.80;99.90;;;;;;5079202;28;20063;-62
2021/01/28 10:47:45;;;;;;;4.65;1.70;;;14.80;99.90;;;;;;5090308;28;20028;-62
2021/01/28 10:50:12;;;;;;;5.80;2.00;;;15.00;99.90;;;;;;5078827;28;20033;-64
2021/01/28 10:52:38;;;;;;;2.88;1.67;;;15.00;99.90;;;;;;5090304;28;20028;-62
2021/01/28 10:55:05;;;;;;;4.32;1.40;;;15.10;99.90;;;;;;5087323;28;20020;-63
2021/01/28 10:57:32;;;;;;;4.70;1.85;;;15.20;99.90;;;;;;5089179;28;20522;-64
2021/01/28 10:59:58;;;;;;;4.28;1.75;;;15.30;99.90;;;;;;5077705;28;20020;-64
2021/01/28 11:02:23;;;;;;;4.65;2.28;;;15.70;99.90;;;;;;5086810;28;20082;-63
2021/01/28 11:04:49;;;;;;;5.45;1.50;;;15.80;99.90;;;;;;5084922;28;20084;-63
2021/01/28 11:07:15;;;;;;;4.32;1.67;;;15.80;99.90;;;;;;5086171;28;20107;-63
2021/01/28 11:09:40;;;;;;;3.70;1.70;;;15.70;99.90;;;;;;5084329;28;20031;-63
2021/01/28 11:12:07;;;;;;;4.80;1.45;;;15.80;99.90;;;;;;5085648;28;20016;-63
2021/01/28 11:14:33;;;;;;;6.20;1.45;;;16.00;99.90;;;;;;5083255;28;20491;-63
2021/01/28 11:16:59;;;;;;;4.32;1.30;;;15.60;99.90;;;;;;5084581;28;20047;-63
2021/01/28 11:19:24;;;;;;;3.72;1.33;;;15.60;99.90;;;;;;5082890;28;20101;-63
2021/01/28 11:21:50;;;;;;;1.85;1.10;;;16.30;99.90;;;;;;5083770;28;20493;-63
2021/01/28 11:24:16;;;;;;;5.28;1.35;;;16.40;99.90;;;;;;5083145;28;20040;-63
2021/01/28 11:26:42;;;;;;;2.92;1.05;;;16.40;99.90;;;;;;5089600;28;20428;-64
2021/01/28 11:29:07;;;;;;;5.53;1.50;;;16.50;99.90;;;;;;5083250;28;20649;-64
2021/01/28 11:31:36;;;;;;;5.68;1.63;;;16.70;99.90;;;;;;5089280;28;20024;-63
2021/01/28 11:34:02;;;;;;;5.80;1.42;;;16.60;99.90;;;;;;5083092;28;20024;-66
2021/01/28 11:36:28;;;;;;;4.07;1.65;;;16.50;99.90;;;;;;5089034;28;20028;-63
2021/01/28 11:38:54;;;;;;;4.90;1.65;;;16.60;99.90;;;;;;5085735;28;20025;-64
2021/01/28 11:41:20;;;;;;;3.42;1.30;;;16.50;99.90;;;;;;5088000;28;20025;-63
2021/01/28 11:43:45;;;;;;;4.43;1.20;;;16.80;99.90;;;;;;5090457;28;20676;-62
2021/01/28 11:46:11;;;;;;;2.20;1.63;;;17.00;99.90;;;;;;5080571;28;20040;-63
2021/01/28 11:48:37;;;;;;;2.30;1.58;;;17.10;99.90;;;;;;5086311;28;20035;-63
2021/01/28 11:51:03;;;;;;;2.95;1.45;;;16.90;99.90;;;;;;5101675;28;20028;-63
2021/01/28 11:53:28;;;;;;;5.68;1.55;;;17.00;99.90;;;;;;5102775;28;20020;-64
2021/01/28 11:55:54;;;;;;;1.65;1.10;;;17.50;99.90;;;;;;5098945;28;20024;-67
2021/01/28 11:58:20;;;;;;;4.45;1.10;;;17.70;99.90;;;;;;5102729;28;20133;-63
2021/01/28 12:00:46;;;;;;;3.60;1.10;;;17.50;99.90;;;;;;5104213;28;20024;-67
2021/01/28 12:03:12;;;;;;;3.55;1.00;;;18.00;99.90;;;;;;5098946;28;20016;-62
2021/01/28 12:05:38;;;;;;;1.55;0.70;;;17.80;99.90;;;;;;5079527;28;20032;-63
2021/01/28 12:08:04;;;;;;;5.68;1.20;;;17.90;99.90;;;;;;5085408;28;20032;-62
2021/01/28 12:10:31;;;;;;;3.72;1.13;;;18.00;99.90;;;;;;5080013;28;20039;-63
2021/01/28 12:12:57;;;;;;;2.10;1.00;;;17.90;99.90;;;;;;5093793;28;20015;-63
2021/01/28 12:15:23;;;;;;;2.25;0.95;;;17.90;99.90;;;;;;5084581;28;20484;-63
2021/01/28 12:17:51;;;;;;;3.65;1.23;;;18.00;99.90;;;;;;5087601;28;20051;-63
2021/01/28 12:20:20;;;;;;;3.40;1.20;;;18.00;99.90;;;;;;5083368;28;20019;-62
2021/01/28 12:22:45;;;;;;;2.58;1.17;;;18.10;99.90;;;;;;5096221;28;20031;-64
2021/01/28 12:25:11;;;;;;;2.42;1.13;;;18.30;99.90;;;;;;5085781;28;20036;-63
2021/01/28 12:27:37;;;;;;;3.42;1.20;;;18.50;99.90;;;;;;5093169;28;20077;-64
2021/01/28 12:30:07;;;;;;;4.20;1.23;;;17.70;99.90;;;;;;5088805;28;20019;-64
2021/01/28 12:32:32;;;;;;;2.47;1.35;;;17.50;99.90;;;;;;5089981;28;20057;-64
2021/01/28 12:34:58;;;;;;;3.40;1.60;;;17.80;99.90;;;;;;5083729;28;20053;-63
2021/01/28 12:37:24;;;;;;;1.60;1.10;;;18.40;99.90;;;;;;5098761;28;20028;-63
2021/01/28 12:39:50;;;;;;;1.52;1.15;;;18.70;99.90;;;;;;5092038;28;20016;-64
2021/01/28 12:42:16;;;;;;;2.55;0.95;;;18.00;99.90;;;;;;5103671;28;20036;-63
2021/01/28 12:44:42;;;;;;;3.67;1.17;;;17.50;99.90;;;;;;5084654;28;20033;-63
2021/01/28 12:47:08;;;;;;;2.58;1.17;;;18.20;99.90;;;;;;5070293;28;20033;-66
2021/01/28 12:49:33;;;;;;;1.55;1.15;;;18.60;99.90;;;;;;5065533;28;20040;-64
2021/01/28 12:51:59;;;;;;;2.88;1.33;;;18.80;99.90;;;;;;5066582;28;20484;-64
2021/01/28 12:54:24;;;;;;;6.63;1.20;;;18.30;99.90;;;;;;5068618;28;20124;-64
2021/01/28 12:56:51;;;;;;;2.90;1.38;;;18.30;99.90;;;;;;5071395;28;20019;-63
2021/01/28 12:59:17;;;;;;;1.90;1.10;;;18.40;99.90;;;;;;5068169;28;20043;-63
2021/01/28 13:01:42;;;;;;;2.83;1.30;;;18.50;99.90;;;;;;5071231;28;20020;-65
2021/01/28 13:04:08;;;;;;;1.90;1.27;;;18.70;99.90;;;;;;5069095;28;20036;-64
2021/01/28 13:06:34;;;;;;;2.13;1.30;;;18.80;99.90;;;;;;5071150;28;20032;-63